Chickering American River Reserve, California Weather observations

Data are for 10 minute period ending at time listed.
 Day   Time   Solar   Ave.   Ave.  Ave.  Vector  Max.   Baro.   Total    
  of    of     Rad.   Air    Rel.  Wind   Wind   Wind  Press.  Precip.   
Year   Day            Temp.  Hum.  Speed  Dir.   Gust                    
2016   (PST)  Kw/m2    F      %     mph   deg.    mph    mb.     in.     
-------------------------------------------------------------------------
 145    2:10   0.00   38.9    95    0.1   219     0.6   813.1    0.00 
 145    2:20   0.00   38.9    95    0.3   182     1.1   813.1    0.00 
 145    2:30   0.00   38.8    96    0.7   221     1.2   813.1    0.00 
 145    2:40   0.00   38.8    96    0.6   235     1.1   812.9    0.00 
 145    2:50   0.00   38.7    96    0.3   182     0.9   812.9    0.00 
 145    3:00   0.00   38.6    96    0.5   193     1.1   812.9    0.00 
 145    3:10   0.00   38.5    96    0.0     0     0.0   812.9    0.00 
 145    3:20   0.00   38.4    96    0.2   177     1.0   812.8    0.00 
 145    3:30   0.00   38.4    96    0.1   193     0.8   812.8    0.00 
 145    3:40   0.00   38.4    96    0.3   200     0.9   812.8    0.00 
 145    3:50   0.00   38.4    96    0.4   215     1.1   812.8    0.00 
 145    4:00   0.00   38.5    96    0.5   203     1.7   812.8    0.00 
 145    4:10   0.00   38.4    96    0.6   211     1.7   812.8    0.00 
 145    4:20   0.00   38.4    96    0.2   205     1.5   812.8    0.00 
 145    4:30   0.00   38.3    96    0.4   172     0.9   812.8    0.00 
 145    4:40   0.00   38.3    96    0.6   222     1.4   812.8    0.00 
 145    4:50   0.00   38.3    96    0.4   245     1.6   812.8    0.00 
 145    5:00   0.00   38.3    96    0.3   173     0.9   812.8    0.00 
 145    5:10   0.00   38.3    96    0.2   193     1.2   812.8    0.00 
 145    5:20   0.01   38.3    96    0.0   210     0.4   812.9    0.00 
 145    5:30   0.02   38.4    96    0.2   208     1.3   813.0    0.00 
 145    5:40   0.02   38.7    96    0.4   203     1.5   813.0    0.00 
 145    5:50   0.03   39.1    95    0.2   242     1.1   813.1    0.00 
 145    6:00   0.04   39.5    95    0.0   206     0.4   813.2    0.00 
 145    6:10   0.05   39.9    95    0.0     0     0.0   813.2    0.00 
 145    6:20   0.05   40.4    94    0.1   173     0.7   813.3    0.00 
 145    6:30   0.06   40.7    93    0.6   163     1.2   813.4    0.00 
 145    6:40   0.07   41.0    92    0.2   164     0.8   813.4    0.00 
 145    6:50   0.07   41.5    91    0.0     0     0.0   813.5    0.00 
 145    7:00   0.11   42.2    91    0.4    56     2.1   813.6    0.00 
 145    7:10   0.14   42.6    90    0.6    49     2.0   813.7    0.00 
 145    7:20   0.16   43.0    86    0.7    48     1.7   813.7    0.00 
 145    7:30   0.18   43.6    83    0.3    52     1.2   813.8    0.00 
 145    7:40   0.21   44.2    80    0.6    60     2.0   814.0    0.00 
 145    7:50   0.26   44.8    76    1.1   330     3.1   814.0    0.00 
 145    8:00   0.37   45.5    76    0.9   358     2.9   814.1    0.00 
 145    8:10   0.48   46.4    71    1.6    10     4.1   814.1    0.00 
 145    8:20   0.22   46.9    70    1.4   341     4.3   814.2    0.00 
 145    8:30   0.14   45.8    71    0.9   294     4.2   814.3    0.00 
 145    8:40   0.13   45.4    74    0.7   214     2.5   814.3    0.00 
 145    8:50   0.17   45.5    79    0.7    55     2.8   814.3    0.00 
 145    9:00   0.14   45.1    81    2.3   356     5.8   814.3    0.00 
 145    9:10   0.15   44.5    84    0.9    22     3.1   814.5    0.00 
 145    9:20   0.19   44.6    87    0.8    29     2.5   814.5    0.00 
 145    9:30   0.16   44.7    87    1.2    59     3.4   814.6    0.00 
 145    9:40   0.16   44.6    87    1.6    56     3.7   814.6    0.00 
 145    9:50   0.13   44.7    87    1.1    52     3.1   814.6    0.00 
 145   10:00   0.15   44.7    84    1.6    51     3.4   814.7    0.00 
 145   10:10   0.21   44.7    86    1.3    51     3.9   814.8    0.00 
 145   10:20   0.25   45.0    83    1.0    56     3.2   814.9    0.00 
 145   10:30   0.35   45.9    82    1.5    69     3.8   814.9    0.00 
 145   10:40   0.32   46.9    78    1.7    70     4.5   815.0    0.00 
 145   10:50   0.20   46.5    80    1.3   357     4.0   815.0    0.00 
 145   11:00   0.13   45.3    84    1.3    45     3.7   815.1    0.00 
 145   11:10   0.07   44.7    87    1.7    59     3.7   815.2    0.00 
 145   11:20   0.08   44.5    89    1.0    51     3.7   815.3    0.00 
 145   11:30   0.13   44.5    89    1.1   357     2.6   815.4    0.00 
 145   11:40   0.07   44.4    85    0.8   354     2.4   815.5    0.00 
 145   11:50   0.11   43.5    89    1.2   334     3.2   815.6    0.00 
 145   12:00   0.10   42.6    93    1.8   338     6.3   815.8    0.00 
 145   12:10   0.11   41.8    92    0.9   323     4.3   815.9    0.00 
 145   12:20   0.13   41.3    92    0.5   140     2.1   815.9    0.00 
 145   12:30   0.08   41.8    93    0.3   167     1.3   816.0    0.00 
 145   12:40   0.12   42.2    92    0.3   250     2.0   816.1    0.00 
 145   12:50   0.13   42.4    90    0.2   118     1.0   816.1    0.00 
 145   13:00   0.14   42.6    92    0.1    61     0.8   816.2    0.00 
 145   13:10   0.13   42.8    92    0.0    82     0.7   816.2    0.00 
 145   13:20   0.11   42.8    89    0.2   187     1.2   816.3    0.00 
 145   13:30   0.14   42.5    91    0.1   103     1.2   816.3    0.00 
 145   13:40   0.12   42.7    89    0.3   121     1.5   816.4    0.00 
 145   13:50   0.12   42.6    92    0.7    68     2.0   816.4    0.00 
 145   14:00   0.09   42.0    90    1.3    77     2.4   816.4    0.00 
 145   14:10   0.09   41.9    93    0.5    64     2.5   816.4    0.00 
 145   14:20   0.12   41.7    93    0.4    64     2.2   816.4    0.00 
 145   14:30   0.14   42.2    94    0.4    62     1.8   816.4    0.00 
 145   14:40   0.20   42.3    93    0.9    57     2.4   816.4    0.00 
 145   14:50   0.20   42.9    93    0.6    50     2.7   816.4    0.00 
 145   15:00   0.18   43.3    90    0.5    68     2.3   816.4    0.00 
 145   15:10   0.17   43.3    90    0.1    42     2.0   816.5    0.00 
 145   15:20   0.23   43.9    88    0.5    50     2.0   816.4    0.00 
 145   15:30   0.54   44.6    88    0.3    28     1.1   816.4    0.00 
 145   15:40   0.31   45.6    87    1.6    12     3.0   816.5    0.00 
 145   15:50   0.32   45.7    88    0.6    56     2.0   816.5    0.00 
 145   16:00   0.23   46.6    87    0.5    37     1.8   816.5    0.00 
 145   16:10   0.16   45.8    88    0.9    67     2.6   816.6    0.00 
 145   16:20   0.14   45.2    91    0.9   111     4.1   816.7    0.00 
 145   16:30   0.06   44.1    89    1.5   175     6.4   816.8    0.00 
 145   16:40   0.05   42.6    92    1.4   162     3.7   816.9    0.00 
 145   16:50   0.06   41.8    92    1.8   169     6.2   816.9    0.00 
 145   17:00   0.05   41.6    93    1.6   159     5.2   816.9    0.00 
 145   17:10   0.06   41.6    94    0.7   159     4.6   816.9    0.00 
 145   17:20   0.08   41.7    92    1.3   174     4.5   816.8    0.00 
 145   17:30   0.04   41.9    91    0.4   215     6.3   816.9    0.00 
 145   17:40   0.01   41.8    92    0.4    13     5.0   816.9    0.00 
 145   17:50   0.01   41.7    93    0.0   189     0.7   816.9    0.00 
 145   18:00   0.01   41.7    94    0.0   183     0.4   816.9    0.00 
 145   18:10   0.01   41.6    94    0.0     0     0.0   816.9    0.00 
 145   18:20   0.01   41.7    94    0.0   354     0.4   817.0    0.00 
 145   18:30   0.02   41.6    94    0.2   267     1.2   817.1    0.00 
 145   18:40   0.03   41.7    95    0.0   159     0.5   817.2    0.00 
 145   18:50   0.03   41.9    95    0.1   166     0.7   817.2    0.00 
 145   19:00   0.01   42.0    95    0.0    31     0.4   817.3    0.00 
 145   19:10   0.00   41.9    96    0.0     0     0.0   817.4    0.00 
 145   19:20   0.00   41.8    95    0.0     0     0.0   817.5    0.00 
 145   19:30   0.00   41.8    95    0.0     0     0.0   817.5    0.00 
 145   19:40   0.00   41.6    95    0.0     0     0.0   817.6    0.00 
 145   19:50   0.00   41.4    96    0.0     0     0.0   817.7    0.00 
 145   20:00   0.00   41.3    96    0.0     0     0.0   817.7    0.00 
 145   20:10   0.00   41.1    96    0.3   159     1.1   817.7    0.00 
 145   20:20   0.00   41.1    96    0.0     0     0.0   817.9    0.00 
 145   20:30   0.00   40.7    96    0.0    97     0.4   817.9    0.00 
 145   20:40   0.00   40.3    96    0.5   231     1.8   818.0    0.00 
 145   20:50   0.00   39.7    96    0.9   215     1.5   818.0    0.00 
 145   21:00   0.00   39.3    96    0.4   222     1.1   818.0    0.00 
 145   21:10   0.00   38.8    96    0.2   170     0.9   818.0    0.00 
 145   21:20   0.00   38.2    96    0.2   206     1.2   818.0    0.00 
 145   21:30   0.00   37.6    96    0.4   212     1.1   818.0    0.00 
 145   21:40   0.00   37.0    96    1.2   201     1.8   818.0    0.00 
 145   21:50   0.00   36.4    97    1.0   194     1.8   818.1    0.00 
 145   22:00   0.00   35.8    97    1.0   191     1.9   818.1    0.00 
 145   22:10   0.00   35.4    97    0.9   202     1.8   818.0    0.00 
 145   22:20   0.00   35.0    97    0.8   172     1.4   818.0    0.00 
 145   22:30   0.00   34.6    98    1.1   209     1.8   818.0    0.00 
 145   22:40   0.00   34.4    98    0.7   181     1.5   817.9    0.00 
 145   22:50   0.00   34.2    98    0.7   211     1.5   817.9    0.00 
 145   23:00   0.00   33.8    98    1.4   201     2.2   817.7    0.00 
 145   23:10   0.00   33.6    98    0.6   203     1.3   817.7    0.00 
 145   23:20   0.00   33.3    98    1.3   200     2.6   817.7    0.00 
 145   23:30   0.00   33.2    98    0.8   194     1.8   817.7    0.00 
 145   23:40   0.00   32.9    98    1.4   211     1.9   817.7    0.00 
 145   23:50   0.00   32.8    98    1.0   181     1.6   817.7    0.00 
 146    0:00   0.00   32.6    98    1.4   204     2.3   817.7    0.00 
 146    0:10   0.00   32.7    98    1.0   204     1.6   817.7    0.00 
 146    0:20   0.00   32.6    98    0.8   189     1.7   817.7    0.00 
 146    0:30   0.00   32.4    98    0.6   171     1.5   817.6    0.00 
 146    0:40   0.00   32.3    98    1.0   187     2.2   817.6    0.00 
 146    0:50   0.00   32.3    98    1.3   214     2.0   817.5    0.00 
 146    1:00   0.00   32.4    98    1.3   200     2.4   817.4    0.00 
 146    1:10   0.00   32.3    98    1.0   207     1.5   817.4    0.00 
 146    1:20   0.00   32.2    98    1.7   201     2.5   817.4    0.00 
 146    1:30   0.00   32.0    98    1.5   182     2.5   817.4    0.00 
 146    1:40   0.00   32.0    98    0.8   180     1.8   817.4    0.00 
 146    1:50   0.00   31.9    98    0.9   180     1.8   817.4    0.00 
 146    2:00   0.00   32.0    99    0.8   208     2.3   817.4    0.00 

Return to Chickering American River Reserve graphs page.


Western Regional Climate Center,wrcc@dri.edu